Terminal Aerodrome Forecast
Issued by NWS

Home | Current Version | Previous Version | Text Only | Print | Product List | Glossary Off
Versions: 1 2 3 4 5 6 7 8 9 10 11 12

000
FTUS43 KMPX 151740
TAFAXN
TAF
KAXN 151740Z 1518/1618 17020G30KT P6SM SCT250
     FM160100 15013KT P6SM SCT080 BKN120
     FM161600 23008KT P6SM OVC050=

USA.gov is the U.S. government's official web portal to all federal, state and local government web resources and services.